createdAt,value
2023-04-19T00:01:01.641Z,64.23
2023-04-19T00:03:30.436Z,64.27
2023-04-19T00:05:59.238Z,64.08
2023-04-19T00:08:26.301Z,64.00
2023-04-19T00:10:52.722Z,64.33
2023-04-19T00:13:19.164Z,63.39
2023-04-19T00:15:45.740Z,63.05
2023-04-19T00:18:12.174Z,64.17
2023-04-19T00:20:39.226Z,64.14
2023-04-19T00:23:05.719Z,63.87
2023-04-19T00:25:34.473Z,64.18
2023-04-19T00:28:00.992Z,65.17
2023-04-19T00:30:27.430Z,65.54
2023-04-19T00:32:53.848Z,64.09
2023-04-19T00:35:20.413Z,63.55
2023-04-19T00:37:46.881Z,64.61
2023-04-19T00:40:13.394Z,64.45
2023-04-19T00:42:39.807Z,65.35
2023-04-19T00:45:06.872Z,65.14
2023-04-19T00:47:33.322Z,64.99
2023-04-19T00:49:59.940Z,64.47
2023-04-19T00:52:26.645Z,64.06
2023-04-19T00:54:53.845Z,64.84
2023-04-19T00:57:21.593Z,64.99
2023-04-19T00:59:48.097Z,64.36
2023-04-19T01:02:14.560Z,64.03
2023-04-19T01:04:41.216Z,63.56
2023-04-19T01:07:08.504Z,64.47
2023-04-19T01:09:35.005Z,64.23
2023-04-19T01:12:03.284Z,64.20
2023-04-19T01:14:29.763Z,64.40
2023-04-19T01:16:57.397Z,64.89
2023-04-19T01:19:23.796Z,65.57
2023-04-19T01:21:50.276Z,65.22
2023-04-19T01:24:16.836Z,65.97
2023-04-19T01:26:43.477Z,65.42
2023-04-19T01:29:09.984Z,66.25
2023-04-19T01:31:36.519Z,66.40
2023-04-19T01:34:02.923Z,65.37
2023-04-19T01:36:29.372Z,66.17
2023-04-19T01:38:56.158Z,64.55
2023-04-19T01:41:26.825Z,65.48
2023-04-19T01:43:53.303Z,65.64
2023-04-19T01:46:19.719Z,65.83
2023-04-19T01:48:46.197Z,66.77
2023-04-19T01:51:12.645Z,66.30
2023-04-19T01:53:39.121Z,66.49
2023-04-19T01:56:05.882Z,66.05
2023-04-19T01:58:32.338Z,66.41
2023-04-19T02:00:58.769Z,66.65
2023-04-19T02:03:25.428Z,67.30
2023-04-19T02:05:51.928Z,67.24
2023-04-19T02:08:18.318Z,67.72
2023-04-19T02:10:44.727Z,67.12
2023-04-19T02:13:11.232Z,67.86
2023-04-19T02:15:37.658Z,67.72
2023-04-19T02:18:07.237Z,67.85
2023-04-19T02:20:33.855Z,67.78
2023-04-19T02:23:00.381Z,68.66
2023-04-19T02:25:26.761Z,68.15
2023-04-19T02:27:53.781Z,68.76
2023-04-19T02:30:20.398Z,68.68
2023-04-19T02:32:48.523Z,68.81
2023-04-19T02:35:15.080Z,69.89
2023-04-19T02:37:41.729Z,68.46
2023-04-19T02:40:08.938Z,68.66
2023-04-19T02:42:35.904Z,68.52
2023-04-19T02:45:02.336Z,67.78
2023-04-19T02:47:28.822Z,69.31
2023-04-19T02:49:55.520Z,69.76
2023-04-19T02:52:21.922Z,70.01
2023-04-19T02:54:48.308Z,70.16
2023-04-19T02:57:14.747Z,69.85
2023-04-19T02:59:41.141Z,69.84
2023-04-19T03:02:07.692Z,69.83
2023-04-19T03:04:34.528Z,69.95
2023-04-19T03:07:01.100Z,69.78
2023-04-19T03:09:27.542Z,70.14
2023-04-19T03:11:54.057Z,70.36
2023-04-19T03:14:20.616Z,71.27
2023-04-19T03:16:47.073Z,69.45
2023-04-19T03:19:13.529Z,70.14
2023-04-19T03:21:39.940Z,69.57
2023-04-19T03:24:06.499Z,68.97
2023-04-19T03:26:32.913Z,68.17
2023-04-19T03:28:59.343Z,68.87
2023-04-19T03:31:26.061Z,69.09
2023-04-19T03:33:52.586Z,70.07
2023-04-19T03:36:19.019Z,69.52
2023-04-19T03:38:45.550Z,69.10
2023-04-19T03:41:23.449Z,69.46
2023-04-19T03:43:50.019Z,69.34
2023-04-19T03:46:16.555Z,68.68
2023-04-19T03:48:43.001Z,67.98
2023-04-19T03:51:09.780Z,68.95
2023-04-19T03:53:36.655Z,69.24
2023-04-19T03:56:03.198Z,68.66
2023-04-19T03:58:29.591Z,67.18
2023-04-19T04:00:55.959Z,67.32
2023-04-19T04:03:22.635Z,66.84
2023-04-19T04:05:49.336Z,68.01
2023-04-19T04:08:15.772Z,67.54
2023-04-19T04:10:42.314Z,66.94
2023-04-19T04:13:08.784Z,68.84
2023-04-19T04:15:35.197Z,68.58
2023-04-19T04:18:01.748Z,68.96
2023-04-19T04:20:28.224Z,68.22
2023-04-19T04:22:54.576Z,68.11
2023-04-19T04:25:22.972Z,68.27
2023-04-19T04:27:52.996Z,68.76
2023-04-19T04:30:19.392Z,69.47
2023-04-19T04:32:46.949Z,69.59
2023-04-19T04:35:13.480Z,70.23
2023-04-19T04:37:40.146Z,69.72
2023-04-19T04:40:08.093Z,69.85
2023-04-19T04:42:35.597Z,70.78
2023-04-19T04:45:02.038Z,70.74
2023-04-19T04:47:34.814Z,68.40
2023-04-19T04:50:02.294Z,68.71
2023-04-19T04:52:29.351Z,69.19
2023-04-19T04:54:55.924Z,69.32
2023-04-19T04:57:22.319Z,69.69
2023-04-19T04:59:48.786Z,68.96
2023-04-19T05:02:15.429Z,69.32
2023-04-19T05:04:42.306Z,69.45
2023-04-19T05:07:09.142Z,69.80
2023-04-19T05:09:35.611Z,69.55
2023-04-19T05:12:02.190Z,68.37
2023-04-19T05:14:28.604Z,69.89
2023-04-19T05:16:55.133Z,69.91
2023-04-19T05:19:21.497Z,68.73
2023-04-19T05:21:48.252Z,69.16
2023-04-19T05:24:14.817Z,68.99
2023-04-19T05:26:41.556Z,68.45
2023-04-19T05:29:07.981Z,68.94
2023-04-19T05:31:34.462Z,69.33
2023-04-19T05:34:00.949Z,68.81
2023-04-19T05:36:28.056Z,68.28
2023-04-19T05:38:54.533Z,67.29
2023-04-19T05:41:20.946Z,68.12
2023-04-19T05:43:47.931Z,67.94
2023-04-19T05:46:14.403Z,67.65
2023-04-19T05:48:40.852Z,67.20
2023-04-19T05:51:07.257Z,67.02
2023-04-19T05:53:33.672Z,67.08
2023-04-19T05:56:00.113Z,67.53
2023-04-19T05:58:27.131Z,66.66
2023-04-19T06:00:53.847Z,66.31
2023-04-19T06:03:20.545Z,65.49
2023-04-19T06:05:47.200Z,65.14
2023-04-19T06:08:16.322Z,65.12
2023-04-19T06:13:15.893Z,63.93
2023-04-19T06:15:42.521Z,63.42
2023-04-19T06:18:19.479Z,62.77
2023-04-19T06:20:46.979Z,62.18
2023-04-19T06:23:14.785Z,62.42
2023-04-19T06:25:41.396Z,61.48
2023-04-19T06:28:07.857Z,60.93
2023-04-19T06:30:34.281Z,61.21
2023-04-19T06:33:00.905Z,61.54
2023-04-19T06:35:27.407Z,60.88
2023-04-19T06:37:53.848Z,61.12
2023-04-19T06:40:20.625Z,60.80
2023-04-19T06:42:47.055Z,60.16
2023-04-19T06:45:15.085Z,59.41
2023-04-19T06:47:41.687Z,61.12
2023-04-19T06:50:08.874Z,60.57
2023-04-19T06:52:35.349Z,58.47
2023-04-19T06:55:01.921Z,57.82
2023-04-19T06:57:28.339Z,58.54
2023-04-19T06:59:55.310Z,58.84
2023-04-19T07:02:21.913Z,58.42
2023-04-19T07:04:48.744Z,58.97
2023-04-19T07:07:15.562Z,58.57
2023-04-19T07:09:42.178Z,58.28
2023-04-19T07:12:08.929Z,57.52
2023-04-19T07:14:35.333Z,58.21
2023-04-19T07:17:03.787Z,58.29
2023-04-19T07:19:30.225Z,58.07
2023-04-19T07:21:56.731Z,57.63
2023-04-19T07:24:23.275Z,56.10
2023-04-19T07:26:49.856Z,55.28
2023-04-19T07:29:16.308Z,55.17
2023-04-19T07:31:43.164Z,55.14
2023-04-19T07:34:10.522Z,55.25
2023-04-19T07:36:37.873Z,55.71
2023-04-19T07:39:04.880Z,54.57
2023-04-19T07:41:35.988Z,54.42
2023-04-19T07:44:02.747Z,52.68
2023-04-19T07:46:29.197Z,55.11
2023-04-19T07:48:55.893Z,53.93
2023-04-19T07:51:24.486Z,53.34
2023-04-19T07:53:50.849Z,52.46
2023-04-19T07:56:17.293Z,52.58
2023-04-19T07:58:45.144Z,52.40
2023-04-19T08:01:13.294Z,50.21
2023-04-19T08:03:40.014Z,51.75
2023-04-19T08:06:08.868Z,50.93
2023-04-19T08:08:36.643Z,51.78
2023-04-19T08:11:03.316Z,50.86
2023-04-19T08:13:30.350Z,51.89
2023-04-19T08:18:26.695Z,50.97
2023-04-19T08:20:53.753Z,50.25
2023-04-19T08:23:24.433Z,51.79
2023-04-19T08:25:54.240Z,49.91
2023-04-19T08:28:20.760Z,50.46
2023-04-19T08:30:47.558Z,50.48
2023-04-19T08:33:14.269Z,51.15
2023-04-19T08:35:41.525Z,51.71
2023-04-19T08:38:08.956Z,52.23
2023-04-19T08:40:38.278Z,51.63
2023-04-19T08:43:07.966Z,51.82
2023-04-19T08:45:35.585Z,50.60
2023-04-19T08:48:03.979Z,49.22
2023-04-19T08:50:38.416Z,51.12
2023-04-19T08:55:58.445Z,51.05
2023-04-19T08:58:41.291Z,50.49
2023-04-19T09:01:33.041Z,48.80
2023-04-19T09:04:17.184Z,48.15
2023-04-19T09:06:48.971Z,48.20
2023-04-19T09:09:33.237Z,47.13
2023-04-19T09:12:01.881Z,48.33
2023-04-19T09:14:29.351Z,48.53
2023-04-19T09:17:16.594Z,49.12
2023-04-19T09:19:48.091Z,49.27
2023-04-19T09:22:14.950Z,48.21
2023-04-19T09:27:12.205Z,46.83
2023-04-19T09:29:38.852Z,45.11
2023-04-19T09:32:06.014Z,47.29
2023-04-19T09:34:32.533Z,46.35
2023-04-19T09:37:20.840Z,46.59
2023-04-19T09:39:58.907Z,46.60
2023-04-19T09:43:06.944Z,45.18
2023-04-19T09:45:41.814Z,46.02
2023-04-19T09:48:09.147Z,46.28
2023-04-19T09:50:46.265Z,44.97
2023-04-19T09:53:22.078Z,45.40
2023-04-19T09:56:00.355Z,44.63
2023-04-19T09:58:34.447Z,44.36
2023-04-19T10:01:14.895Z,45.05
2023-04-19T10:03:47.576Z,43.78
2023-04-19T10:08:55.116Z,44.33
2023-04-19T10:11:22.547Z,44.90
2023-04-19T10:13:52.953Z,43.74
2023-04-19T10:16:20.670Z,44.50
2023-04-19T10:18:50.550Z,44.21
2023-04-19T10:21:19.074Z,44.09
2023-04-19T10:23:46.493Z,44.01
2023-04-19T10:26:12.875Z,44.04
2023-04-19T10:28:41.962Z,44.61
2023-04-19T10:31:13.219Z,43.74
2023-04-19T10:33:40.708Z,45.01
2023-04-19T10:36:11.658Z,44.21
2023-04-19T10:38:49.414Z,45.47
2023-04-19T10:41:18.293Z,46.82
2023-04-19T10:43:58.098Z,46.01
2023-04-19T10:46:25.863Z,45.86
2023-04-19T10:49:00.410Z,48.07
2023-04-19T10:51:27.844Z,47.32
2023-04-19T10:53:55.968Z,46.49
2023-04-19T10:56:59.644Z,47.52
2023-04-19T10:59:27.214Z,46.57
2023-04-19T11:01:57.078Z,46.71
2023-04-19T11:04:30.018Z,45.80
2023-04-19T11:07:02.538Z,46.17
2023-04-19T11:09:34.301Z,45.34
2023-04-19T11:12:05.326Z,46.45
2023-04-19T11:14:37.535Z,46.92
2023-04-19T11:17:18.585Z,46.17
2023-04-19T11:19:58.003Z,45.32
2023-04-19T11:22:45.582Z,45.60
2023-04-19T11:25:17.409Z,45.50
2023-04-19T11:27:50.853Z,45.46
2023-04-19T11:30:20.588Z,46.43
2023-04-19T11:32:49.021Z,46.31
2023-04-19T11:35:19.568Z,46.71
2023-04-19T11:37:46.372Z,47.09
2023-04-19T11:40:18.047Z,45.99
2023-04-19T11:42:45.041Z,46.39
2023-04-19T11:45:25.800Z,46.71
2023-04-19T11:47:56.039Z,46.24
2023-04-19T11:50:38.032Z,46.69
2023-04-19T11:53:18.879Z,46.70
2023-04-19T11:55:56.346Z,45.15
2023-04-19T11:58:29.224Z,47.20
2023-04-19T12:00:58.281Z,45.83
2023-04-19T12:03:26.411Z,46.40
2023-04-19T12:05:58.319Z,46.14
2023-04-19T12:08:36.397Z,46.40
2023-04-19T12:11:04.418Z,45.67
2023-04-19T12:13:31.926Z,45.16
2023-04-19T12:15:59.253Z,44.81
2023-04-19T12:18:26.024Z,44.62
2023-04-19T12:20:53.308Z,44.63
2023-04-19T12:23:21.113Z,43.45
2023-04-19T12:25:48.825Z,42.88
2023-04-19T12:28:16.514Z,43.50
2023-04-19T12:30:43.289Z,42.11
2023-04-19T12:33:10.173Z,41.33
2023-04-19T12:35:38.449Z,43.18
2023-04-19T12:38:04.910Z,42.12
2023-04-19T12:40:31.365Z,41.06
2023-04-19T12:42:57.758Z,40.98
2023-04-19T12:45:24.143Z,41.62
2023-04-19T12:47:50.884Z,41.19
2023-04-19T12:50:17.340Z,40.19
2023-04-19T12:52:44.920Z,39.21
2023-04-19T12:55:11.512Z,41.20
2023-04-19T12:57:37.881Z,41.39
2023-04-19T13:00:06.141Z,39.28
2023-04-19T13:02:34.900Z,40.28
2023-04-19T13:05:02.041Z,41.47
2023-04-19T13:07:28.799Z,41.45
2023-04-19T13:09:56.735Z,39.64
2023-04-19T13:12:23.932Z,40.33
2023-04-19T13:14:52.049Z,40.64
2023-04-19T13:17:21.480Z,41.83
2023-04-19T13:19:47.998Z,41.37
2023-04-19T13:22:14.731Z,40.40
2023-04-19T13:24:41.256Z,39.15
2023-04-19T13:27:09.115Z,39.69
2023-04-19T13:29:35.979Z,39.41
2023-04-19T13:32:02.548Z,40.37
2023-04-19T13:34:29.286Z,39.20
2023-04-19T13:36:57.512Z,40.08
2023-04-19T13:39:24.064Z,39.78
2023-04-19T13:41:50.522Z,39.47
2023-04-19T13:44:17.192Z,39.20
2023-04-19T13:46:43.914Z,37.99
2023-04-19T13:49:10.400Z,38.25
2023-04-19T13:51:48.821Z,39.26
2023-04-19T13:54:20.242Z,40.01
2023-04-19T13:56:48.584Z,39.79
2023-04-19T13:59:16.355Z,39.87
2023-04-19T14:01:42.840Z,40.63
2023-04-19T14:04:09.337Z,41.01
2023-04-19T14:06:35.944Z,41.21
2023-04-19T14:09:02.486Z,40.55
2023-04-19T14:11:28.957Z,40.91
2023-04-19T14:13:55.905Z,41.50
2023-04-19T14:16:25.152Z,39.97
2023-04-19T14:18:52.199Z,41.65
2023-04-19T14:21:19.079Z,40.54
2023-04-19T14:23:45.544Z,41.40
2023-04-19T14:26:12.012Z,41.73
2023-04-19T14:28:38.388Z,40.83
2023-04-19T14:31:04.886Z,41.91
2023-04-19T14:33:31.841Z,42.34
2023-04-19T14:35:58.325Z,43.86
2023-04-19T14:38:24.799Z,42.66
2023-04-19T14:40:51.275Z,44.13
2023-04-19T14:43:17.853Z,49.22
2023-04-19T14:45:44.402Z,51.10
2023-04-19T14:48:10.998Z,49.32
2023-04-19T14:50:37.443Z,49.32
2023-04-19T14:53:03.904Z,52.85
2023-04-19T14:55:30.332Z,56.09
2023-04-19T14:57:56.755Z,55.82
2023-04-19T15:00:23.331Z,54.05
2023-04-19T15:02:49.956Z,54.34
2023-04-19T15:05:16.920Z,54.61
2023-04-19T15:07:43.629Z,53.90
2023-04-19T15:10:10.472Z,54.01
2023-04-19T15:12:36.958Z,54.47
2023-04-19T15:15:04.114Z,56.16
2023-04-19T15:17:30.614Z,54.25
2023-04-19T15:19:58.133Z,55.98
2023-04-19T15:22:24.768Z,60.53
2023-04-19T15:24:51.508Z,61.46
2023-04-19T15:27:17.896Z,62.63
2023-04-19T15:29:47.416Z,63.57
2023-04-19T15:32:14.253Z,61.95
2023-04-19T15:34:40.707Z,62.07
2023-04-19T15:37:08.098Z,62.85
2023-04-19T15:39:34.601Z,62.30
2023-04-19T15:42:01.970Z,61.89
2023-04-19T15:44:28.623Z,62.93
2023-04-19T15:46:56.118Z,62.91
2023-04-19T15:49:22.823Z,62.56
2023-04-19T15:51:49.274Z,60.34
2023-04-19T15:54:15.781Z,61.38
2023-04-19T15:56:42.262Z,62.67
2023-04-19T15:59:08.806Z,61.66
2023-04-19T16:01:36.102Z,60.65
2023-04-19T16:04:03.860Z,62.71
2023-04-19T16:06:30.629Z,63.15
2023-04-19T16:08:57.072Z,63.53
2023-04-19T16:11:23.692Z,64.35
2023-04-19T16:13:50.152Z,64.23
2023-04-19T16:16:16.592Z,64.89
2023-04-19T16:18:43.180Z,66.66
2023-04-19T16:21:10.640Z,67.39
2023-04-19T16:23:37.047Z,66.08
2023-04-19T16:26:03.569Z,66.66
2023-04-19T16:28:30.045Z,68.10
2023-04-19T16:30:57.098Z,69.07
2023-04-19T16:33:23.634Z,69.92
2023-04-19T16:35:50.312Z,70.50
2023-04-19T16:38:16.818Z,71.44
2023-04-19T16:40:46.097Z,72.11
2023-04-19T16:43:12.603Z,72.24
2023-04-19T16:45:39.475Z,73.96
2023-04-19T16:48:06.071Z,73.21
2023-04-19T16:50:32.644Z,74.15
2023-04-19T16:52:59.219Z,73.99
2023-04-19T16:55:25.654Z,73.69
2023-04-19T16:57:53.658Z,72.97
2023-04-19T17:00:20.384Z,73.53
2023-04-19T17:02:46.912Z,75.72
2023-04-19T17:05:15.878Z,75.68
2023-04-19T17:07:43.810Z,76.40
2023-04-19T17:10:10.633Z,76.22
2023-04-19T17:12:37.240Z,76.04
2023-04-19T17:15:04.072Z,76.40
2023-04-19T17:17:30.496Z,75.91
2023-04-19T17:19:57.678Z,76.31
2023-04-19T17:22:24.358Z,75.84
2023-04-19T17:24:50.835Z,76.96
2023-04-19T17:27:17.326Z,77.18
2023-04-19T17:29:43.796Z,77.72
2023-04-19T17:32:10.264Z,77.35
2023-04-19T17:34:37.171Z,78.56
2023-04-19T17:37:04.126Z,77.48
2023-04-19T17:39:30.640Z,77.19
2023-04-19T17:41:57.183Z,76.98
2023-04-19T17:44:24.160Z,76.52
2023-04-19T17:46:50.763Z,76.93
2023-04-19T17:49:19.034Z,75.72
2023-04-19T17:51:46.640Z,76.71
2023-04-19T17:54:13.316Z,76.32
2023-04-19T17:56:39.923Z,75.69
2023-04-19T17:59:06.628Z,76.16
2023-04-19T18:01:35.032Z,76.00
2023-04-19T18:04:01.967Z,76.60
2023-04-19T18:06:28.638Z,76.36
2023-04-19T18:08:55.225Z,75.63
2023-04-19T18:11:21.670Z,75.80
2023-04-19T18:13:48.205Z,74.61
2023-04-19T18:16:17.018Z,75.20
2023-04-19T18:18:43.561Z,75.19
2023-04-19T18:21:10.040Z,74.61
2023-04-19T18:23:37.601Z,74.71
2023-04-19T18:26:04.107Z,74.89
2023-04-19T18:28:30.724Z,74.04
2023-04-19T18:30:57.162Z,74.37
2023-04-19T18:33:23.795Z,73.49
2023-04-19T18:35:50.244Z,74.67
2023-04-19T18:38:17.138Z,73.70
2023-04-19T18:40:43.649Z,73.00
2023-04-19T18:43:10.310Z,73.75
2023-04-19T18:45:37.161Z,73.89
2023-04-19T18:48:03.814Z,73.81
2023-04-19T18:50:31.208Z,72.77
2023-04-19T18:52:58.374Z,73.05
2023-04-19T18:55:26.542Z,71.78
2023-04-19T18:57:53.095Z,72.39
2023-04-19T19:00:21.616Z,73.29
2023-04-19T19:02:48.292Z,72.89
2023-04-19T19:05:15.814Z,72.47
2023-04-19T19:07:42.990Z,73.30
2023-04-19T19:10:19.122Z,72.88
2023-04-19T19:12:48.826Z,73.40
2023-04-19T19:15:15.640Z,72.87
2023-04-19T19:17:43.758Z,73.43
2023-04-19T19:20:10.705Z,73.80
2023-04-19T19:22:37.331Z,75.28
2023-04-19T19:25:04.245Z,74.99
2023-04-19T19:27:30.963Z,74.07
2023-04-19T19:29:58.871Z,74.18
2023-04-19T19:32:25.715Z,74.83
2023-04-19T19:35:00.692Z,74.48
2023-04-19T19:37:29.385Z,75.77
2023-04-19T19:39:56.721Z,74.30
2023-04-19T19:42:23.850Z,74.74
2023-04-19T19:44:55.343Z,74.24
2023-04-19T19:47:24.427Z,74.99
2023-04-19T19:50:34.788Z,74.19
2023-04-19T19:52:38.007Z,74.92
2023-04-19T19:55:04.795Z,75.60
2023-04-19T20:00:17.898Z,75.39
2023-04-19T20:05:18.900Z,75.92
2023-04-19T20:08:01.196Z,76.45
2023-04-19T20:10:28.801Z,77.53
2023-04-19T20:12:57.155Z,77.23
2023-04-19T20:15:23.948Z,76.86
2023-04-19T20:17:50.768Z,79.22
2023-04-19T20:20:17.343Z,78.94
2023-04-19T20:22:43.921Z,79.23
2023-04-19T20:25:10.870Z,79.38
2023-04-19T20:27:37.896Z,79.94
2023-04-19T20:30:06.111Z,79.46
2023-04-19T20:32:32.651Z,80.00
2023-04-19T20:35:00.063Z,80.21
2023-04-19T20:37:27.122Z,80.35
2023-04-19T20:39:57.969Z,80.29
2023-04-19T20:42:24.365Z,81.04
2023-04-19T20:44:50.859Z,80.07
2023-04-19T20:47:18.278Z,81.41
2023-04-19T20:49:44.724Z,80.45
2023-04-19T20:52:11.217Z,82.26
2023-04-19T20:54:38.800Z,81.06
2023-04-19T20:57:05.388Z,82.43
2023-04-19T20:59:31.886Z,82.71
2023-04-19T21:01:59.040Z,82.14
2023-04-19T21:04:26.247Z,81.37
2023-04-19T21:06:52.819Z,81.54
2023-04-19T21:09:19.261Z,81.36
2023-04-19T21:11:45.707Z,80.55
2023-04-19T21:14:12.147Z,79.96
2023-04-19T21:16:38.618Z,79.84
2023-04-19T21:19:05.061Z,80.10
2023-04-19T21:21:32.571Z,80.46
2023-04-19T21:23:59.187Z,79.59
2023-04-19T21:26:25.733Z,80.30
2023-04-19T21:28:52.173Z,80.22
2023-04-19T21:31:18.678Z,79.47
2023-04-19T21:33:45.183Z,79.54
2023-04-19T21:36:11.613Z,79.25
2023-04-19T21:38:38.017Z,78.20
2023-04-19T21:41:06.592Z,77.88
2023-04-19T21:43:33.034Z,77.41
2023-04-19T21:46:01.603Z,77.09
2023-04-19T21:48:28.067Z,76.73
2023-04-19T21:50:54.476Z,78.08
2023-04-19T21:53:21.264Z,77.39
2023-04-19T21:55:49.966Z,77.14
2023-04-19T21:58:17.997Z,78.18
2023-04-19T22:00:45.610Z,77.84
2023-04-19T22:03:12.333Z,77.25
2023-04-19T22:05:38.866Z,77.53
2023-04-19T22:08:05.398Z,77.75
2023-04-19T22:10:34.013Z,77.50
2023-04-19T22:13:02.350Z,78.05
2023-04-19T22:15:29.593Z,77.95
2023-04-19T22:17:57.330Z,78.63
2023-04-19T22:20:27.159Z,78.61
2023-04-19T22:22:53.744Z,78.22
2023-04-19T22:25:20.209Z,79.05
2023-04-19T22:27:48.684Z,80.26
2023-04-19T22:30:16.110Z,81.02
2023-04-19T22:32:42.648Z,80.73
2023-04-19T22:35:09.366Z,80.24
2023-04-19T22:37:35.898Z,80.10
2023-04-19T22:40:02.533Z,79.80
2023-04-19T22:42:29.014Z,79.31
2023-04-19T22:44:55.722Z,80.70
2023-04-19T22:47:22.201Z,80.49
2023-04-19T22:49:49.515Z,81.28
2023-04-19T22:52:15.955Z,81.05
2023-04-19T22:54:42.682Z,81.13
2023-04-19T22:57:10.178Z,80.71
2023-04-19T22:59:36.634Z,81.30
2023-04-19T23:02:03.330Z,81.26
2023-04-19T23:04:35.058Z,80.73
2023-04-19T23:07:01.736Z,80.65
2023-04-19T23:09:29.664Z,79.70
2023-04-19T23:11:58.400Z,80.48
2023-04-19T23:14:24.857Z,79.69
2023-04-19T23:16:54.586Z,79.73
2023-04-19T23:19:22.671Z,79.69
2023-04-19T23:21:50.283Z,79.78
2023-04-19T23:24:17.607Z,80.40
2023-04-19T23:26:43.981Z,80.38
2023-04-19T23:29:10.498Z,80.96
2023-04-19T23:31:37.097Z,81.25
2023-04-19T23:34:03.537Z,80.99
2023-04-19T23:36:30.029Z,82.01
2023-04-19T23:38:56.579Z,80.87
2023-04-19T23:41:23.023Z,80.78
2023-04-19T23:43:49.493Z,79.46
2023-04-19T23:46:15.983Z,79.75
2023-04-19T23:48:42.670Z,80.21
2023-04-19T23:51:09.138Z,80.64
2023-04-19T23:53:35.914Z,80.90
2023-04-19T23:56:02.316Z,80.07
2023-04-19T23:58:28.776Z,79.89
